Time;durP1;ratioP1;P1;durP2;ratioP2;P2;SDS_P1;SDS_P2;PMS_P1;PMS_P2;Temp;Humidity;BMP_temperature;BMP_pressure;BME280_temperature;BME280_humidity;BME280_pressure;Samples;Min_cycle;Max_cycle;Signal;HPM_P1;HPM_P2
2023/07/16 00:01:31;;;;;;;4.68;1.83;;;;;;;17.75;75.11;100814.44;7402308;19;19918;-65
2023/07/16 00:03:59;;;;;;;4.38;1.30;;;;;;;17.72;75.22;100812.16;7403902;19;19939;-63
2023/07/16 00:06:28;;;;;;;6.00;1.63;;;;;;;17.74;75.10;100820.09;7404718;19;19947;-63
2023/07/16 00:08:56;;;;;;;4.05;1.60;;;;;;;17.73;74.93;100819.28;7404089;19;19926;-65
2023/07/16 00:11:28;;;;;;;3.85;1.50;;;;;;;17.70;74.61;100819.72;7404380;19;19931;-64
2023/07/16 00:13:56;;;;;;;7.15;1.85;;;;;;;17.68;74.35;100819.13;7404935;19;19926;-64
2023/07/16 00:16:25;;;;;;;5.40;1.83;;;;;;;17.67;73.74;100815.56;7404737;19;19961;-64
2023/07/16 00:18:54;;;;;;;4.18;1.50;;;;;;;17.64;72.69;100826.91;7404133;19;19918;-63
2023/07/16 00:21:22;;;;;;;3.95;2.10;;;;;;;17.63;72.06;100817.06;7386972;19;19922;-64
2023/07/16 00:23:51;;;;;;;4.50;1.60;;;;;;;17.64;71.40;100820.63;7379750;19;19923;-63
2023/07/16 00:26:20;;;;;;;4.95;1.35;;;;;;;17.63;70.60;100817.06;7382475;19;20426;-63
2023/07/16 00:28:51;;;;;;;4.07;1.45;;;;;;;17.62;69.98;100817.28;7381795;19;20480;-63
2023/07/16 00:31:19;;;;;;;4.78;2.10;;;;;;;17.61;71.01;100818.31;7375513;19;20084;-64
2023/07/16 00:33:48;;;;;;;4.82;1.75;;;;;;;17.57;70.81;100820.66;7378982;19;19926;-64
2023/07/16 00:36:17;;;;;;;3.72;1.52;;;;;;;17.53;71.05;100827.59;7384671;19;19923;-64
2023/07/16 00:38:46;;;;;;;6.65;1.40;;;;;;;17.48;71.25;100821.16;7382894;19;19922;-63
2023/07/16 00:41:15;;;;;;;7.15;2.13;;;;;;;17.45;71.13;100827.03;7382480;19;19951;-63
2023/07/16 00:43:44;;;;;;;3.90;1.45;;;;;;;17.43;71.49;100832.72;7381178;19;20308;-64
2023/07/16 00:46:15;;;;;;;5.57;1.65;;;;;;;17.41;71.72;100821.22;7382012;19;20656;-64
2023/07/16 00:48:45;;;;;;;5.07;1.50;;;;;;;17.40;71.26;100819.53;7380846;19;19922;-63
2023/07/16 00:51:15;;;;;;;7.25;1.65;;;;;;;17.36;71.41;100822.94;7379310;19;19922;-64
2023/07/16 00:53:44;;;;;;;6.63;1.85;;;;;;;17.33;71.87;100824.22;7382181;19;19918;-64
2023/07/16 00:56:13;;;;;;;8.77;2.13;;;;;;;17.30;71.80;100813.75;7380545;19;19944;-64
2023/07/16 00:58:42;;;;;;;4.20;1.63;;;;;;;17.27;71.49;100813.38;7381223;19;20016;-68
2023/07/16 01:01:11;;;;;;;7.05;1.92;;;;;;;17.24;71.70;100803.78;7381655;19;19925;-65
2023/07/16 01:03:42;;;;;;;3.80;1.60;;;;;;;17.20;71.11;100803.38;7379747;19;19922;-65
2023/07/16 01:06:17;;;;;;;7.95;1.80;;;;;;;17.18;70.61;100808.19;7383628;19;19943;-65
2023/07/16 01:08:49;;;;;;;5.68;1.55;;;;;;;17.19;69.72;100809.03;7379076;19;19926;-65
2023/07/16 01:11:18;;;;;;;8.85;1.90;;;;;;;17.23;70.05;100793.94;7381834;19;19923;-65
2023/07/16 01:13:47;;;;;;;5.90;2.15;;;;;;;17.27;69.90;100786.13;7380231;19;19950;-64
2023/07/16 01:16:22;;;;;;;9.02;1.95;;;;;;;17.23;69.50;100789.31;7380479;19;19978;-64
2023/07/16 01:18:54;;;;;;;4.93;1.80;;;;;;;17.24;69.46;100801.88;7379583;19;20359;-64
2023/07/16 01:21:24;;;;;;;5.13;1.58;;;;;;;17.26;69.87;100800.84;7380548;19;20276;-64
2023/07/16 01:24:14;;;;;;;7.15;1.80;;;;;;;17.16;69.56;100804.88;7375972;19;19970;-64
2023/07/16 01:27:01;;;;;;;9.35;1.80;;;;;;;17.13;70.13;100799.84;7379806;19;20017;-65
2023/07/16 01:29:39;;;;;;;5.00;1.70;;;;;;;17.12;70.20;100797.38;7380036;19;19939;-64
2023/07/16 01:32:10;;;;;;;8.73;1.90;;;;;;;17.10;70.54;100797.59;7380137;19;19922;-64
2023/07/16 01:34:39;;;;;;;6.40;1.73;;;;;;;17.06;70.60;100800.97;7380918;19;19934;-63
2023/07/16 01:37:08;;;;;;;6.35;1.90;;;;;;;16.99;70.64;100806.47;7381881;19;19961;-63
2023/07/16 01:39:38;;;;;;;9.05;2.25;;;;;;;16.94;71.40;100811.75;7380505;19;19926;-65
2023/07/16 01:42:07;;;;;;;5.38;1.50;;;;;;;16.92;71.15;100808.41;7381466;19;19974;-65
2023/07/16 01:44:38;;;;;;;8.30;2.60;;;;;;;16.91;71.57;100806.75;7392330;19;20308;-65
2023/07/16 01:47:10;;;;;;;5.53;1.88;;;;;;;16.87;71.73;100813.66;7391973;19;19922;-63
2023/07/16 01:49:38;;;;;;;;;;;;;;;16.63;72.68;100809.84;7393519;19;20400;-65
2023/07/16 01:52:09;;;;;;;7.15;2.38;;;;;;;16.78;72.03;100812.28;7394249;19;19926;-65
2023/07/16 01:54:38;;;;;;;7.28;2.47;;;;;;;16.75;71.69;100820.84;7394200;19;19914;-63
2023/07/16 01:57:07;;;;;;;6.32;1.88;;;;;;;16.75;72.37;100809.97;7393320;19;19947;-63
2023/07/16 01:59:39;;;;;;;7.10;1.80;;;;;;;16.69;72.46;100805.44;7392205;19;19922;-63
2023/07/16 02:02:08;;;;;;;7.95;1.95;;;;;;;16.67;72.29;100812.97;7393680;19;20312;-65
2023/07/16 02:04:36;;;;;;;8.68;2.00;;;;;;;16.62;73.05;100810.88;7392078;19;19915;-65
2023/07/16 02:07:06;;;;;;;5.32;1.80;;;;;;;16.59;73.45;100805.06;7398974;19;19930;-63
2023/07/16 02:09:36;;;;;;;6.30;2.25;;;;;;;16.56;74.05;100806.31;7392080;19;19941;-64
2023/07/16 02:12:05;;;;;;;3.65;1.98;;;;;;;16.54;74.06;100800.25;7393294;19;19919;-64
2023/07/16 02:14:34;;;;;;;5.35;2.25;;;;;;;16.54;74.25;100811.13;7392137;19;19922;-64
2023/07/16 02:17:05;;;;;;;6.70;2.53;;;;;;;16.54;74.34;100813.00;7394908;19;19934;-64
2023/07/16 02:19:34;;;;;;;7.55;2.17;;;;;;;16.54;74.42;100796.69;7393090;19;19943;-64
2023/07/16 02:22:02;;;;;;;9.88;1.98;;;;;;;16.55;73.60;100807.34;7389141;19;19922;-64
2023/07/16 02:24:31;;;;;;;6.90;2.15;;;;;;;16.55;73.75;100820.94;7389881;19;19910;-64
2023/07/16 02:27:00;;;;;;;7.97;2.40;;;;;;;16.57;74.21;100807.13;7393314;19;20248;-64
2023/07/16 02:29:29;;;;;;;5.28;2.33;;;;;;;16.57;73.81;100802.53;7391752;19;19990;-64
2023/07/16 02:31:57;;;;;;;7.30;2.50;;;;;;;16.56;73.40;100808.19;7392535;19;20379;-64
2023/07/16 02:34:29;;;;;;;4.82;1.90;;;;;;;16.55;73.45;100804.63;7391526;19;19922;-63
2023/07/16 02:36:57;;;;;;;6.93;2.50;;;;;;;16.56;73.07;100805.47;7396574;19;19934;-63
2023/07/16 02:39:26;;;;;;;6.38;2.20;;;;;;;16.54;73.18;100810.28;7392684;19;19922;-62
2023/07/16 02:41:55;;;;;;;14.27;2.72;;;;;;;16.53;73.32;100805.88;7391652;19;20290;-64
2023/07/16 02:44:24;;;;;;;4.80;2.20;;;;;;;16.52;72.61;100806.97;7391071;19;23268;-64
2023/07/16 02:46:52;;;;;;;13.07;2.30;;;;;;;16.51;72.54;100806.13;7391511;19;20385;-65
2023/07/16 02:49:21;;;;;;;6.93;2.45;;;;;;;16.50;71.87;100817.19;7392070;19;19959;-65
2023/07/16 02:51:52;;;;;;;6.47;2.50;;;;;;;16.51;71.00;100797.97;7391067;19;19922;-65
2023/07/16 02:54:20;;;;;;;7.10;2.20;;;;;;;16.54;71.09;100810.28;7386639;19;20374;-65
2023/07/16 02:56:50;;;;;;;4.53;2.33;;;;;;;16.57;70.12;100798.94;7385444;19;19918;-65
2023/07/16 02:59:18;;;;;;;7.30;2.40;;;;;;;16.59;69.64;100803.19;7382780;19;20321;-65
2023/07/16 03:01:47;;;;;;;9.25;2.92;;;;;;;16.60;69.66;100795.84;7384868;19;19926;-65
2023/07/16 03:04:16;;;;;;;7.13;2.30;;;;;;;16.58;69.66;100801.50;7383128;19;20907;-65
2023/07/16 03:06:44;;;;;;;10.15;2.50;;;;;;;16.55;69.37;100803.78;7387239;19;19930;-65
2023/07/16 03:09:15;;;;;;;5.50;2.28;;;;;;;16.52;69.35;100806.97;7379180;19;19974;-65
2023/07/16 03:11:44;;;;;;;10.60;2.55;;;;;;;16.47;69.48;100813.03;7385415;19;19922;-65
2023/07/16 03:14:12;;;;;;;5.13;2.30;;;;;;;16.43;69.29;100803.66;7382406;19;22567;-66
2023/07/16 03:16:41;;;;;;;4.85;2.20;;;;;;;16.40;69.27;100822.25;7384066;19;19919;-65
2023/07/16 03:19:10;;;;;;;5.30;3.03;;;;;;;16.39;69.61;100812.47;7375048;19;19926;-65
2023/07/16 03:21:38;;;;;;;6.63;2.47;;;;;;;16.37;69.43;100817.25;7380408;19;19947;-65
2023/07/16 03:24:08;;;;;;;10.30;2.58;;;;;;;16.33;69.55;100817.72;7374934;19;19927;-65
2023/07/16 03:26:39;;;;;;;9.50;2.38;;;;;;;16.31;69.47;100821.69;7382412;19;19922;-65
2023/07/16 03:29:07;;;;;;;5.78;2.35;;;;;;;16.27;70.01;100826.72;7379056;19;19918;-67
2023/07/16 03:31:36;;;;;;;8.50;2.83;;;;;;;16.25;69.82;100820.69;7383568;19;20580;-66
2023/07/16 03:34:05;;;;;;;11.57;2.50;;;;;;;16.24;70.04;100820.88;7381817;19;19934;-65
2023/07/16 03:36:33;;;;;;;8.25;2.53;;;;;;;16.21;70.27;100821.31;7386286;19;19930;-65
2023/07/16 03:39:02;;;;;;;7.32;2.53;;;;;;;16.17;70.49;100826.34;7382456;19;19947;-65
2023/07/16 03:41:31;;;;;;;5.22;2.50;;;;;;;16.17;70.23;100839.94;7385263;19;19919;-65
2023/07/16 03:44:02;;;;;;;11.10;3.10;;;;;;;16.16;70.07;100829.28;7382428;19;19926;-65
2023/07/16 03:46:31;;;;;;;5.97;2.70;;;;;;;16.16;70.33;100827.41;7382709;19;19918;-65
2023/07/16 03:48:59;;;;;;;6.80;2.30;;;;;;;16.18;69.82;100840.78;7380726;19;19954;-65
2023/07/16 03:51:28;;;;;;;6.97;2.53;;;;;;;16.19;69.48;100834.28;7382467;19;19925;-65
2023/07/16 03:53:57;;;;;;;7.32;2.42;;;;;;;16.23;69.45;100835.50;7381801;19;19930;-65
2023/07/16 03:56:25;;;;;;;7.85;2.60;;;;;;;16.24;68.96;100834.47;7384573;19;20557;-65
2023/07/16 03:58:54;;;;;;;7.53;2.60;;;;;;;16.25;69.37;100831.56;7382299;19;19914;-65
2023/07/16 04:01:26;;;;;;;8.45;2.85;;;;;;;16.25;68.53;100826.09;7382094;19;22221;-62
2023/07/16 04:03:54;;;;;;;7.57;2.65;;;;;;;16.26;68.90;100846.81;7383443;19;19932;-65
2023/07/16 04:06:23;;;;;;;7.88;2.67;;;;;;;16.26;68.82;100827.78;7386708;19;20008;-65
2023/07/16 04:08:51;;;;;;;9.40;2.97;;;;;;;16.27;68.64;100840.31;7378175;19;19954;-65
2023/07/16 04:11:20;;;;;;;13.18;2.78;;;;;;;16.28;68.62;100843.84;7382722;19;20398;-65
2023/07/16 04:13:49;;;;;;;7.22;2.80;;;;;;;16.28;68.79;100841.16;7381471;19;20915;-63
2023/07/16 04:16:17;;;;;;;6.03;2.30;;;;;;;16.26;68.74;100846.81;7382331;19;19957;-63
2023/07/16 04:18:48;;;;;;;6.72;2.70;;;;;;;16.26;68.82;100854.97;7379626;19;19922;-65
2023/07/16 04:21:17;;;;;;;8.25;2.95;;;;;;;16.25;68.75;100850.56;7380142;19;19927;-64
2023/07/16 04:23:45;;;;;;;6.05;2.55;;;;;;;16.23;69.16;100855.38;7379879;19;19986;-64
2023/07/16 04:26:14;;;;;;;10.05;2.55;;;;;;;16.22;69.17;100856.41;7382152;19;19926;-64
2023/07/16 04:28:43;;;;;;;10.60;3.42;;;;;;;16.22;69.50;100858.34;7380670;19;19926;-64
2023/07/16 04:31:11;;;;;;;8.25;3.42;;;;;;;16.20;69.34;100858.53;7377632;19;19970;-64
2023/07/16 04:33:40;;;;;;;7.20;2.28;;;;;;;16.22;69.76;100859.13;7384100;19;20272;-63
2023/07/16 04:36:11;;;;;;;8.38;2.42;;;;;;;16.23;70.07;100862.69;7385606;19;19935;-63
2023/07/16 04:38:40;;;;;;;9.38;3.13;;;;;;;16.22;69.65;100867.28;7381237;19;19943;-63
2023/07/16 04:41:08;;;;;;;8.15;2.25;;;;;;;16.21;70.17;100865.66;7381609;19;20865;-63
2023/07/16 04:43:37;;;;;;;6.65;2.90;;;;;;;16.21;70.16;100864.81;7381259;19;19958;-64
2023/07/16 04:46:05;;;;;;;7.40;2.92;;;;;;;16.23;69.94;100866.25;7382435;19;19957;-68
2023/07/16 04:48:34;;;;;;;5.90;2.45;;;;;;;16.25;70.34;100877.75;7379537;19;20478;-65
2023/07/16 04:51:03;;;;;;;7.55;2.65;;;;;;;16.27;70.38;100872.94;7379813;19;19984;-64
2023/07/16 04:53:34;;;;;;;8.88;2.58;;;;;;;16.31;70.68;100878.75;7380975;19;19944;-64
2023/07/16 04:56:02;;;;;;;7.72;2.63;;;;;;;16.33;70.30;100876.69;7381626;19;19939;-64
2023/07/16 04:58:31;;;;;;;11.50;2.38;;;;;;;16.33;70.69;100887.56;7379617;19;19926;-64
2023/07/16 05:01:00;;;;;;;8.10;2.65;;;;;;;16.34;70.29;100881.91;7377448;19;19914;-64
2023/07/16 05:03:29;;;;;;;6.72;2.88;;;;;;;16.35;70.09;100882.75;7382489;19;19943;-64
2023/07/16 05:05:58;;;;;;;9.82;2.72;;;;;;;16.40;70.16;100880.19;7380362;19;19923;-66
2023/07/16 05:08:26;;;;;;;9.10;2.83;;;;;;;16.44;70.14;100888.78;7381883;19;19923;-64
2023/07/16 05:10:58;;;;;;;6.72;2.67;;;;;;;16.49;70.23;100886.22;7380844;19;19932;-64
2023/07/16 05:13:27;;;;;;;8.73;3.47;;;;;;;16.54;69.59;100891.88;7380533;19;20486;-64
2023/07/16 05:15:56;;;;;;;6.15;2.63;;;;;;;16.56;69.59;100895.22;7381939;19;20344;-64
2023/07/16 05:18:24;;;;;;;10.68;2.83;;;;;;;16.59;69.85;100892.09;7381347;19;19922;-63
2023/07/16 05:20:53;;;;;;;4.88;2.10;;;;;;;16.63;69.61;100896.88;7379278;19;19931;-64
2023/07/16 05:23:22;;;;;;;7.55;2.40;;;;;;;16.67;69.44;100894.56;7381122;19;19925;-63
2023/07/16 05:25:51;;;;;;;6.95;3.17;;;;;;;16.70;69.72;100891.41;7378452;19;19935;-64
2023/07/16 05:28:23;;;;;;;8.88;2.40;;;;;;;16.74;69.26;100895.34;7381296;19;20622;-63
2023/07/16 05:31:00;;;;;;;6.82;2.78;;;;;;;16.78;69.54;100902.88;7381067;19;19926;-63
2023/07/16 05:33:29;;;;;;;8.25;3.20;;;;;;;16.84;68.88;100903.91;7385702;19;20311;-63
2023/07/16 05:35:57;;;;;;;7.32;2.83;;;;;;;16.89;69.13;100911.41;7385535;19;20494;-65
2023/07/16 05:38:26;;;;;;;8.52;2.90;;;;;;;16.93;68.82;100908.03;7381484;19;19922;-65
2023/07/16 05:40:55;;;;;;;8.18;3.00;;;;;;;16.97;68.72;100927.50;7380710;19;19952;-63
2023/07/16 05:43:26;;;;;;;5.65;2.85;;;;;;;16.99;68.59;100917.22;7380503;19;19910;-63
2023/07/16 05:45:54;;;;;;;9.65;2.80;;;;;;;17.03;68.93;100930.19;7381436;19;20589;-64
2023/07/16 05:48:23;;;;;;;7.68;2.78;;;;;;;17.06;69.19;100926.19;7380405;19;19923;-64
2023/07/16 05:50:52;;;;;;;5.82;1.90;;;;;;;17.09;68.83;100917.56;7378855;19;19922;-64
2023/07/16 05:53:20;;;;;;;6.10;2.25;;;;;;;17.11;69.41;100934.53;7380194;19;20624;-63
2023/07/16 05:55:49;;;;;;;5.82;2.50;;;;;;;17.14;68.85;100918.59;7378620;19;19942;-64
2023/07/16 05:58:18;;;;;;;8.25;3.20;;;;;;;17.17;69.21;100930.94;7379512;19;19918;-63
2023/07/16 06:00:49;;;;;;;7.88;2.58;;;;;;;17.19;68.98;100924.22;7379811;19;19922;-64
2023/07/16 06:03:19;;;;;;;6.40;2.38;;;;;;;17.22;68.77;100937.38;7378640;19;19910;-63
2023/07/16 06:05:47;;;;;;;6.75;2.55;;;;;;;17.24;68.26;100923.56;7377197;19;19923;-63
2023/07/16 06:08:16;;;;;;;6.85;2.40;;;;;;;17.24;68.54;100931.75;7378752;19;19923;-63
2023/07/16 06:10:45;;;;;;;9.52;2.88;;;;;;;17.28;68.66;100932.13;7377061;19;19934;-63
2023/07/16 06:13:13;;;;;;;7.70;2.08;;;;;;;17.30;68.11;100946.38;7377523;19;19927;-64
2023/07/16 06:15:42;;;;;;;7.80;2.35;;;;;;;17.34;68.08;100936.72;7377593;19;19968;-64
2023/07/16 06:18:13;;;;;;;3.92;2.17;;;;;;;17.38;67.63;100946.94;7380302;19;22443;-63
2023/07/16 06:20:46;;;;;;;7.72;2.38;;;;;;;17.39;67.63;100966.81;7377963;19;19939;-65
2023/07/16 06:23:16;;;;;;;7.78;2.80;;;;;;;17.39;67.31;100948.59;7375227;19;19934;-64
2023/07/16 06:25:46;;;;;;;5.55;2.38;;;;;;;17.38;66.98;100940.66;7377722;19;19919;-63
2023/07/16 06:28:15;;;;;;;8.90;2.47;;;;;;;17.42;66.95;100945.44;7374956;19;19925;-64
2023/07/16 06:30:44;;;;;;;6.82;2.85;;;;;;;17.47;67.25;100958.41;7379886;19;19926;-63
2023/07/16 06:33:15;;;;;;;6.00;2.10;;;;;;;17.49;66.79;100948.13;7365769;19;20016;-63
2023/07/16 06:35:47;;;;;;;8.10;2.33;;;;;;;17.54;66.84;100948.28;7350889;19;19928;-63
2023/07/16 06:38:16;;;;;;;6.97;2.55;;;;;;;17.58;66.47;100952.28;7346359;19;19942;-65
2023/07/16 06:40:49;;;;;;;7.18;2.60;;;;;;;17.61;65.16;100965.44;7352885;19;19919;-64
2023/07/16 06:43:18;;;;;;;8.13;2.67;;;;;;;17.66;65.78;100981.97;7353279;19;19922;-66
2023/07/16 06:45:47;;;;;;;7.22;2.42;;;;;;;17.69;65.83;100976.91;7351508;19;20353;-65
2023/07/16 06:48:18;;;;;;;11.93;2.85;;;;;;;17.76;65.32;100971.44;7354679;19;19930;-65
2023/07/16 06:50:47;;;;;;;6.80;3.20;;;;;;;17.81;65.40;100974.31;7370816;19;19922;-64
2023/07/16 06:53:16;;;;;;;8.70;3.20;;;;;;;17.89;64.64;100978.66;7375797;19;19918;-64
2023/07/16 06:55:45;;;;;;;10.88;3.45;;;;;;;17.93;65.33;100978.00;7379264;19;19939;-64
2023/07/16 06:58:14;;;;;;;7.60;2.78;;;;;;;18.02;65.19;100982.13;7385401;19;20372;-64
2023/07/16 07:00:43;;;;;;;5.97;2.90;;;;;;;18.12;63.96;100987.06;7383780;19;20344;-64
2023/07/16 07:03:12;;;;;;;6.60;2.90;;;;;;;18.25;63.91;100999.75;7383212;19;19962;-66
2023/07/16 07:05:46;;;;;;;7.25;2.80;;;;;;;18.33;63.21;100983.09;7385027;19;22296;-65
2023/07/16 07:08:14;;;;;;;6.20;2.78;;;;;;;18.35;63.15;100992.69;7383112;19;19923;-62
2023/07/16 07:10:43;;;;;;;6.85;3.10;;;;;;;18.39;62.81;101037.56;7377860;19;19918;-63
2023/07/16 07:13:12;;;;;;;4.93;2.28;;;;;;;18.42;62.05;101003.56;7384511;19;19961;-65
2023/07/16 07:15:40;;;;;;;9.70;2.90;;;;;;;18.50;62.49;101004.09;7384133;19;19922;-64
2023/07/16 07:18:09;;;;;;;7.65;2.97;;;;;;;18.54;61.56;101007.25;7385343;19;20964;-64
2023/07/16 07:20:37;;;;;;;7.40;3.55;;;;;;;18.60;61.98;100992.69;7384005;19;19929;-64
2023/07/16 07:23:09;;;;;;;5.75;2.90;;;;;;;18.67;61.14;101014.44;7380218;19;20407;-64
2023/07/16 07:25:37;;;;;;;8.55;3.22;;;;;;;18.76;61.17;101016.66;7383165;19;19972;-64
2023/07/16 07:28:06;;;;;;;9.32;3.28;;;;;;;18.76;60.29;101011.22;7383761;19;19926;-64
2023/07/16 07:30:35;;;;;;;6.60;3.05;;;;;;;18.77;60.53;101007.38;7379422;19;19982;-65
2023/07/16 07:33:04;;;;;;;7.32;2.92;;;;;;;18.78;60.21;101019.16;7389090;19;19930;-65
2023/07/16 07:35:32;;;;;;;6.57;2.70;;;;;;;18.81;61.07;101010.53;7387189;19;20449;-65
2023/07/16 07:38:01;;;;;;;11.52;3.42;;;;;;;18.76;60.03;101035.78;7385073;19;19919;-65
2023/07/16 07:40:32;;;;;;;8.52;3.60;;;;;;;18.76;60.24;101024.00;7382907;19;19922;-65
2023/07/16 07:43:01;;;;;;;7.50;2.58;;;;;;;18.71;60.19;101030.16;7383364;19;20005;-65
2023/07/16 07:45:29;;;;;;;7.03;3.22;;;;;;;18.69;60.01;101013.16;7383252;19;19923;-65
2023/07/16 07:47:58;;;;;;;7.82;3.15;;;;;;;18.74;60.25;101013.31;7377393;19;20301;-65
2023/07/16 07:50:29;;;;;;;5.30;2.72;;;;;;;18.77;60.24;101010.13;7381268;19;19923;-65
2023/07/16 07:52:57;;;;;;;8.68;3.22;;;;;;;18.81;60.24;101014.06;7383887;19;19934;-66
2023/07/16 07:55:26;;;;;;;7.22;2.70;;;;;;;18.88;60.07;101012.09;7381226;19;20913;-65
2023/07/16 07:57:57;;;;;;;7.57;2.70;;;;;;;18.98;58.91;101023.31;7383710;19;19935;-65
2023/07/16 08:00:26;;;;;;;6.63;3.13;;;;;;;19.06;59.40;101021.34;7382893;19;19926;-66
2023/07/16 08:02:54;;;;;;;6.43;2.90;;;;;;;19.20;59.80;101018.19;7382084;19;20330;-65
2023/07/16 08:05:23;;;;;;;8.57;3.00;;;;;;;19.30;59.36;101029.44;7391240;19;19926;-65
2023/07/16 08:07:53;;;;;;;6.72;2.70;;;;;;;19.31;58.63;101025.63;7384930;19;19950;-64
2023/07/16 08:10:21;;;;;;;7.50;2.90;;;;;;;19.39;58.94;101033.50;7380609;19;19943;-64
2023/07/16 08:12:51;;;;;;;9.52;2.92;;;;;;;19.48;58.38;101037.63;7381983;19;19982;-65
2023/07/16 08:15:22;;;;;;;7.47;2.95;;;;;;;19.52;57.62;101040.72;7381732;19;19936;-65
2023/07/16 08:17:50;;;;;;;6.32;2.60;;;;;;;19.51;58.25;101047.25;7376100;19;20342;-65
2023/07/16 08:20:19;;;;;;;7.95;2.95;;;;;;;19.50;58.34;101047.50;7371606;19;20359;-64
2023/07/16 08:22:48;;;;;;;6.10;3.05;;;;;;;19.50;57.79;101051.06;7378214;19;19978;-65
2023/07/16 08:25:16;;;;;;;6.97;2.70;;;;;;;19.48;58.12;101072.31;7382862;19;19951;-65
2023/07/16 08:27:45;;;;;;;7.05;3.80;;;;;;;19.46;57.79;101061.59;7382188;19;19951;-64
2023/07/16 08:30:14;;;;;;;10.93;3.20;;;;;;;19.45;57.48;101059.13;7379722;19;20791;-65
2023/07/16 08:32:45;;;;;;;10.23;3.28;;;;;;;19.42;56.49;101065.00;7382865;19;19918;-64
2023/07/16 08:35:16;;;;;;;5.78;2.88;;;;;;;19.45;56.78;101067.31;7386841;19;19959;-65
2023/07/16 08:37:44;;;;;;;5.78;2.75;;;;;;;19.44;57.02;101057.44;7380920;19;20003;-64
2023/07/16 08:40:14;;;;;;;8.48;2.47;;;;;;;19.51;57.46;101055.44;7380071;19;19947;-65
2023/07/16 08:42:47;;;;;;;11.20;3.03;;;;;;;19.55;56.16;101064.84;7380609;19;19926;-65
2023/07/16 08:45:17;;;;;;;6.43;2.47;;;;;;;19.64;56.75;101057.16;7380547;19;20303;-65
2023/07/16 08:47:48;;;;;;;6.60;2.65;;;;;;;19.66;56.52;101060.50;7380680;19;19934;-63
2023/07/16 08:50:19;;;;;;;6.38;2.80;;;;;;;19.71;56.99;101060.66;7378474;19;19939;-64
2023/07/16 08:52:48;;;;;;;10.60;3.13;;;;;;;19.77;57.28;101059.69;7397952;19;19924;-64
2023/07/16 08:55:16;;;;;;;6.78;2.38;;;;;;;19.77;56.99;101056.97;7379986;19;22520;-64
2023/07/16 08:57:46;;;;;;;7.20;3.00;;;;;;;19.88;56.46;101091.72;7380439;19;19930;-64
2023/07/16 09:00:17;;;;;;;10.07;3.22;;;;;;;19.92;55.50;101088.31;7381630;19;19947;-65
2023/07/16 09:02:45;;;;;;;4.82;2.47;;;;;;;19.97;55.86;101105.91;7380802;19;20518;-65
2023/07/16 09:05:17;;;;;;;6.78;2.85;;;;;;;19.95;55.24;101070.59;7376565;19;20675;-65
2023/07/16 09:07:46;;;;;;;6.03;2.88;;;;;;;19.92;55.76;101082.84;7378255;19;19922;-65
2023/07/16 09:10:16;;;;;;;4.97;2.70;;;;;;;19.89;55.00;101107.88;7377496;19;20324;-65
2023/07/16 09:12:45;;;;;;;7.20;3.17;;;;;;;19.87;54.92;101082.69;7377864;19;19954;-65
2023/07/16 09:15:14;;;;;;;7.22;2.65;;;;;;;19.94;55.62;101083.41;7378051;19;19935;-65
2023/07/16 09:17:43;;;;;;;8.27;2.65;;;;;;;19.94;56.06;101077.94;7379734;19;19922;-66
2023/07/16 09:20:12;;;;;;;6.25;3.05;;;;;;;19.98;55.70;101091.97;7373063;19;19926;-65
2023/07/16 09:22:44;;;;;;;6.60;3.08;;;;;;;19.91;54.08;101107.66;7392538;19;19940;-64
2023/07/16 09:25:13;;;;;;;5.78;2.78;;;;;;;19.87;54.33;101107.31;7396790;19;19914;-64
2023/07/16 09:27:41;;;;;;;6.70;3.15;;;;;;;19.94;54.65;101109.94;7397807;19;19947;-64
2023/07/16 09:30:17;;;;;;;7.25;2.40;;;;;;;20.02;54.88;101103.31;7367029;19;19940;-65
2023/07/16 09:32:47;;;;;;;7.38;2.90;;;;;;;20.14;54.63;101105.00;7388367;19;19943;-64
2023/07/16 09:35:16;;;;;;;8.35;2.80;;;;;;;20.19;54.34;101115.25;7387281;19;19923;-65
2023/07/16 09:37:48;;;;;;;10.63;3.47;;;;;;;20.28;54.23;101113.81;7384087;19;19919;-65
2023/07/16 09:40:16;;;;;;;6.45;2.97;;;;;;;20.36;54.09;101095.19;7381657;19;20252;-65
2023/07/16 09:42:46;;;;;;;5.65;2.75;;;;;;;20.50;54.60;101105.91;7393191;19;20251;-66
2023/07/16 09:45:20;;;;;;;7.00;3.25;;;;;;;20.44;54.64;101121.41;7397115;19;19943;-64
2023/07/16 09:47:49;;;;;;;5.93;2.95;;;;;;;20.37;54.64;101120.66;7391898;19;20270;-64
2023/07/16 09:50:18;;;;;;;9.18;3.58;;;;;;;20.35;54.30;101128.28;7401177;19;19957;-65
2023/07/16 09:52:50;;;;;;;7.30;3.40;;;;;;;20.30;55.31;101126.25;7395604;19;19918;-65
2023/07/16 09:55:19;;;;;;;;;;;;;;;20.12;55.40;101137.22;7398945;19;19952;-64
2023/07/16 09:57:49;;;;;;;5.97;3.30;;;;;;;20.12;55.57;101144.59;7390075;19;19923;-64
2023/07/16 10:00:20;;;;;;;10.27;3.70;;;;;;;20.07;56.35;101139.81;7398885;19;19978;-65
2023/07/16 10:02:49;;;;;;;7.55;3.00;;;;;;;20.06;56.48;101145.53;7400210;19;19918;-66
2023/07/16 10:05:21;;;;;;;9.63;3.40;;;;;;;20.15;55.84;101155.09;7407880;19;19939;-65
2023/07/16 10:07:58;;;;;;;7.30;3.33;;;;;;;20.14;54.87;101151.53;7400553;19;19923;-65
2023/07/16 10:10:29;;;;;;;7.03;3.08;;;;;;;20.19;55.33;101153.56;7382839;19;19923;-65
2023/07/16 10:12:59;;;;;;;9.10;3.40;;;;;;;20.37;55.83;101156.22;7385380;19;20072;-65
2023/07/16 10:15:29;;;;;;;6.72;3.65;;;;;;;20.56;55.09;101162.47;7387060;19;19922;-66
2023/07/16 10:17:58;;;;;;;13.60;3.28;;;;;;;20.58;55.17;101152.13;7380685;19;19923;-65
2023/07/16 10:20:36;;;;;;;9.70;2.88;;;;;;;20.56;55.57;101163.31;7381556;19;19921;-66
2023/07/16 10:23:17;;;;;;;7.38;3.22;;;;;;;20.36;53.96;101169.06;7381791;19;20395;-65
2023/07/16 10:26:01;;;;;;;7.63;3.33;;;;;;;20.21;54.74;101174.13;7383633;19;19939;-66
2023/07/16 10:28:29;;;;;;;7.55;3.40;;;;;;;20.20;55.43;101182.56;7386592;19;19930;-64
2023/07/16 10:30:58;;;;;;;5.60;3.05;;;;;;;20.19;55.27;101197.31;7381805;19;19978;-66
2023/07/16 10:33:27;;;;;;;9.10;3.17;;;;;;;20.57;54.57;101191.50;7384152;19;19919;-64
2023/07/16 10:35:55;;;;;;;10.45;3.42;;;;;;;20.88;54.60;101204.91;7392070;19;20263;-65
2023/07/16 10:38:27;;;;;;;10.48;3.38;;;;;;;20.99;52.80;101182.16;7382643;19;19922;-65
2023/07/16 10:40:55;;;;;;;8.52;2.90;;;;;;;21.26;52.94;101183.38;7384650;19;20663;-65
2023/07/16 10:43:24;;;;;;;7.15;3.13;;;;;;;21.45;52.36;101173.09;7384124;19;20316;-65
2023/07/16 10:45:53;;;;;;;8.63;3.13;;;;;;;21.41;52.54;101180.13;7380510;19;19922;-64
2023/07/16 10:48:27;;;;;;;6.68;3.53;;;;;;;21.16;52.41;101180.41;7384377;19;20005;-65
2023/07/16 10:50:56;;;;;;;11.02;3.50;;;;;;;21.11;53.86;101190.38;7380239;19;19915;-64
2023/07/16 10:53:28;;;;;;;8.35;3.22;;;;;;;21.12;53.20;101194.78;7382648;19;19926;-65
2023/07/16 10:55:59;;;;;;;5.20;2.80;;;;;;;21.19;53.03;101215.53;7382920;19;20534;-65
2023/07/16 10:58:28;;;;;;;9.13;3.35;;;;;;;21.16;52.59;101204.22;7384907;19;20371;-65
2023/07/16 11:00:58;;;;;;;7.30;3.05;;;;;;;21.11;53.01;101196.69;7383409;19;19926;-64
2023/07/16 11:03:26;;;;;;;5.75;3.10;;;;;;;21.02;53.30;101209.06;7382115;19;20910;-66
2023/07/16 11:05:55;;;;;;;9.65;3.78;;;;;;;20.82;53.41;101212.16;7382874;19;19948;-65
2023/07/16 11:08:29;;;;;;;7.22;3.30;;;;;;;20.79;53.25;101198.94;7382976;19;19965;-64
2023/07/16 11:10:59;;;;;;;5.55;2.78;;;;;;;20.89;52.93;101213.94;7381794;19;20387;-66
2023/07/16 11:13:29;;;;;;;8.77;2.90;;;;;;;20.99;52.92;101222.41;7381098;19;21946;-66
2023/07/16 11:15:57;;;;;;;5.88;3.30;;;;;;;21.10;52.87;101221.56;7381723;19;19946;-64
2023/07/16 11:18:26;;;;;;;8.80;3.13;;;;;;;21.12;52.52;101230.41;7380914;19;19926;-65
2023/07/16 11:20:55;;;;;;;5.72;3.33;;;;;;;21.07;53.28;101222.06;7382138;19;19915;-65
2023/07/16 11:23:26;;;;;;;7.22;3.05;;;;;;;21.08;52.90;101227.31;7381957;19;22709;-65
2023/07/16 11:25:57;;;;;;;8.88;2.95;;;;;;;21.16;52.34;101253.53;7378735;19;20325;-64
2023/07/16 11:28:26;;;;;;;7.72;3.15;;;;;;;21.32;53.62;101241.84;7380314;19;19939;-64
2023/07/16 11:30:54;;;;;;;4.60;3.08;;;;;;;21.35;53.50;101235.91;7380545;19;19919;-64
2023/07/16 11:33:23;;;;;;;7.70;3.05;;;;;;;21.39;53.67;101267.25;7383135;19;19959;-65
2023/07/16 11:35:53;;;;;;;8.07;3.88;;;;;;;21.32;53.33;101263.78;7391745;19;19930;-64